Terminal Aerodrome Forecast
Issued by NWS Shreveport, LA

Home | Current Version | Previous Version | Text Only | Print | Product List | Glossary On
Versions: 1 2 3 4 5 6 7 8 9 10 11 12 13 14 15 16
000
FTUS44 KSHV 251140
TAFSHV
TAF
KSHV 251140Z 2512/2612 15006KT P6SM FEW025 BKN100 OVC250
      TEMPO 2512/2515 4SM BR OVC010
     FM251500 17010G16KT P6SM SCT020 BKN100
     FM252100 18010KT P6SM VCTS SCT040CB BKN100
     FM260000 16007KT P6SM FEW040 BKN250
     FM261000 16007KT P6SM SCT015 BKN250=

USA.gov is the U.S. government's official web portal to all federal, state and local government web resources and services.